Terminal Aerodrome Forecast
Issued by NWS Mt. Holly, NJ

Home | Current Version | Previous Version | Text Only | Print | Product List | Glossary On
Versions: 1 2 3 4 5 6 7 8 9 10 11 12 13 14
922
FTUS41 KPHI 221122
TAFABE
TAF
KABE 221122Z 2212/2312 VRB03KT P6SM BKN100
     FM221500 VRB03KT P6SM BKN060
     FM222100 VRB03KT P6SM SCT100
     FM230800 VRB03KT 4SM BR SCT010=

USA.gov is the U.S. government's official web portal to all federal, state and local government web resources and services.